Time;durP1;ratioP1;P1;durP2;ratioP2;P2;SDS_P1;SDS_P2;PMS_P1;PMS_P2;Temp;Humidity;BMP_temperature;BMP_pressure;BME280_temperature;BME280_humidity;BME280_pressure;Samples;Min_cycle;Max_cycle;Signal;HPM_P1;HPM_P2
2021/12/20 00:00:58;;;;;;;;;;;;;;;15.17;48.26;102965.84;5004445;28;19948;-84
2021/12/20 00:03:23;;;;;;;;;;;;;;;15.67;46.61;102965.97;5022577;28;19917;-84
2021/12/20 00:05:49;;;;;;;;;;;;;;;15.81;46.84;102964.63;5023453;28;19927;-83
2021/12/20 00:08:14;;;;;;;;;;;;;;;16.01;46.25;102969.34;5022203;28;19944;-84
2021/12/20 00:10:42;;;;;;;;;;;;;;;15.95;46.47;102965.00;5004916;28;19918;-84
2021/12/20 00:13:07;;;;;;;;;;;;;;;15.82;46.95;102959.13;5004784;28;19922;-84
2021/12/20 00:15:32;;;;;;;;;;;;;;;15.59;47.17;102954.41;5004940;28;20383;-84
2021/12/20 00:17:58;;;;;;;;;;;;;;;15.73;46.30;102963.03;5022217;28;19921;-83
2021/12/20 00:20:23;;;;;;;;;;;;;;;15.73;46.99;102962.13;5022615;28;20139;-84
2021/12/20 00:22:48;;;;;;;;;;;;;;;14.94;47.35;102955.72;5005546;28;19925;-85
2021/12/20 00:25:14;;;;;;;;;;;;;;;15.62;45.13;102950.69;5004171;28;19921;-83
2021/12/20 00:27:39;;;;;;;;;;;;;;;15.59;45.80;102966.25;5005814;28;19960;-84
2021/12/20 00:30:09;;;;;;;;;;;;;;;15.75;46.10;102963.84;5016539;28;19993;-84
2021/12/20 00:32:34;;;;;;;;;;;;;;;15.69;46.02;102958.63;5013636;28;19918;-83
2021/12/20 00:35:00;;;;;;;;;;;;;;;15.81;45.57;102960.06;5011618;28;19925;-84
2021/12/20 00:40:21;;;;;;;;;;;;;;;15.14;47.09;102952.31;5033132;28;19928;-84
2021/12/20 00:42:48;;;;;;;;;;;;;;;15.44;46.31;102934.03;5018189;28;19921;-83
2021/12/20 00:45:13;;;;;;;;;;;;;;;15.41;45.79;102939.59;5011112;28;19917;-84
2021/12/20 00:47:39;;;;;;;;;;;;;;;15.37;46.42;102954.28;5010292;28;20000;-83
2021/12/20 00:50:05;;;;;;;;;;;;;;;15.49;45.62;102942.94;5021720;28;19923;-83
2021/12/20 00:52:31;;;;;;;;;;;;;;;15.59;45.96;102938.97;5023435;28;20281;-84
2021/12/20 00:54:56;;;;;;;;;;;;;;;15.52;45.69;102937.38;5023240;28;19956;-84
2021/12/20 00:57:22;;;;;;;;;;;;;;;14.96;45.90;102932.00;5022123;28;19921;-84
2021/12/20 00:59:48;;;;;;;;;;;;;;;15.41;44.68;102924.13;5052022;28;19929;-83
2021/12/20 01:02:13;;;;;;;;;;;;;;;15.45;44.32;102932.22;5041962;28;19940;-84
2021/12/20 01:04:38;;;;;;;;;;;;;;;15.17;45.31;102934.03;5040403;28;19921;-84
2021/12/20 01:07:03;;;;;;;;;;;;;;;15.48;44.58;102941.16;5022032;28;19917;-84
2021/12/20 01:09:29;;;;;;;;;;;;;;;15.59;44.14;102943.50;5040531;28;19971;-84
2021/12/20 01:12:01;;;;;;;;;;;;;;;15.47;44.72;102938.50;5040590;28;19924;-85
2021/12/20 01:14:27;;;;;;;;;;;;;;;15.79;44.05;102937.38;5022881;28;19971;-84
2021/12/20 01:16:55;;;;;;;;;;;;;;;15.63;44.84;102928.81;5041440;28;19917;-84
2021/12/20 01:19:22;;;;;;;;;;;;;;;15.88;43.91;102927.94;5023374;28;19917;-85
2021/12/20 01:21:47;;;;;;;;;;;;;;;15.75;44.48;102930.22;5043316;28;19944;-84
2021/12/20 01:24:12;;;;;;;;;;;;;;;15.77;44.18;102929.22;5015112;28;20360;-84
2021/12/20 01:26:38;;;;;;;;;;;;;;;15.84;44.17;102924.47;5024478;28;19968;-84
2021/12/20 01:29:03;;;;;;;;;;;;;;;15.59;44.35;102933.50;5007022;28;19926;-84
2021/12/20 01:31:28;;;;;;;;;;;;;;;15.59;44.88;102925.31;5007552;28;19929;-84
2021/12/20 01:33:53;;;;;;;;;;;;;;;15.64;44.82;102922.44;5006734;28;19913;-83
2021/12/20 01:36:18;;;;;;;;;;;;;;;15.91;44.32;102922.38;5024056;28;19929;-83
2021/12/20 01:38:44;;;;;;;;;;;;;;;15.15;45.03;102929.56;5006614;28;19940;-85
2021/12/20 01:41:10;;;;;;;;;;;;;;;15.58;44.09;102928.09;5006116;28;19928;-84
2021/12/20 01:43:37;;;;;;;;;;;;;;;15.82;43.83;102922.72;5006217;28;19918;-84
2021/12/20 01:46:02;;;;;;;;;;;;;;;15.70;44.33;102924.03;5007520;28;19917;-84
2021/12/20 01:48:29;;;;;;;;;;;;;;;15.53;44.25;102930.09;5024561;28;19918;-84
2021/12/20 01:53:39;;;;;;;;;;;;;;;15.61;44.24;102925.28;5024978;28;19928;-84
2021/12/20 01:56:05;;;;;;;;;;;;;;;15.45;44.41;102927.63;5007082;28;19925;-84
2021/12/20 01:58:30;;;;;;;;;;;;;;;15.59;44.60;102935.31;5007629;28;19928;-84
2021/12/20 02:03:41;;;;;;;;;;;;;;;15.48;44.73;102938.44;5025962;28;19917;-84
2021/12/20 02:06:15;;;;;;;;;;;;;;;14.13;46.37;102936.34;5040969;28;20114;-84
2021/12/20 02:08:40;;;;;;;;;;;;;;;14.43;45.01;102930.91;5059677;28;19939;-83
2021/12/20 02:11:09;;;;;;;;;;;;;;;14.47;43.98;102929.84;5026268;28;19917;-84
2021/12/20 02:13:35;;;;;;;;;;;;;;;14.75;44.23;102925.41;5026926;28;20027;-84
2021/12/20 02:16:01;;;;;;;;;;;;;;;15.73;42.67;102927.56;5028639;28;19924;-84
2021/12/20 02:18:27;;;;;;;;;;;;;;;15.38;43.27;102924.25;5028461;28;19917;-83
2021/12/20 02:20:52;;;;;;;;;;;;;;;15.65;44.84;102917.84;5028121;28;20279;-84
2021/12/20 02:23:18;;;;;;;;;;;;;;;15.71;43.10;102921.22;5027077;28;19972;-84
2021/12/20 02:25:43;;;;;;;;;;;;;;;15.72;43.13;102922.16;5025285;28;20303;-84
2021/12/20 02:28:13;;;;;;;;;;;;;;;15.56;43.66;102922.66;5042611;28;19964;-84
2021/12/20 02:38:34;;;;;;;;;;;;;;;15.56;44.41;102917.22;5043241;28;19943;-84
2021/12/20 02:41:08;;;;;;;;;;;;;;;15.39;44.43;102904.19;5025958;28;19921;-84
2021/12/20 02:43:37;;;;;;;;;;;;;;;14.84;45.89;102917.84;5025710;28;19917;-85
2021/12/20 02:46:06;;;;;;;;;;;;;;;14.63;47.36;102924.88;5025943;28;20403;-85
2021/12/20 02:48:31;;;;;;;;;;;;;;;14.79;46.54;102902.59;5043456;28;19943;-85
2021/12/20 02:50:57;;;;;;;;;;;;;;;14.81;46.67;102904.31;5025864;28;19918;-85
2021/12/20 02:53:22;;;;;;;;;;;;;;;14.88;47.25;102913.19;5043491;28;19917;-84
2021/12/20 02:55:48;;;;;;;;;;;;;;;14.73;47.19;102906.38;5024723;28;19918;-85
2021/12/20 02:58:13;;;;;;;;;;;;;;;14.52;47.39;102911.56;5024733;28;20381;-86
2021/12/20 03:00:39;;;;;;;;;;;;;;;14.64;47.38;102904.84;5025692;28;19929;-84
2021/12/20 03:03:04;;;;;;;;;;;;;;;15.29;45.88;102902.72;5044325;28;19913;-85
2021/12/20 03:05:29;;;;;;;;;;;;;;;15.42;45.21;102903.19;5026603;28;19917;-84
2021/12/20 03:07:55;;;;;;;;;;;;;;;15.14;45.32;102905.97;5024314;28;19913;-84
2021/12/20 03:10:22;;;;;;;;;;;;;;;15.18;44.86;102897.63;5042189;28;19947;-84
2021/12/20 03:12:49;;;;;;;;;;;;;;;15.41;44.56;102902.31;5023978;28;19925;-84
2021/12/20 03:15:19;;;;;;;;;;;;;;;15.46;44.74;102904.88;5023963;28;20295;-85
2021/12/20 03:17:45;;;;;;;;;;;;;;;14.90;45.52;102905.88;5041793;28;19921;-85
2021/12/20 03:20:11;;;;;;;;;;;;;;;15.51;44.55;102896.53;5024613;28;19923;-84
2021/12/20 03:22:36;;;;;;;;;;;;;;;15.80;43.95;102910.97;5024307;28;19917;-84
2021/12/20 03:25:01;;;;;;;;;;;;;;;15.70;44.55;102907.66;5024594;28;19917;-85
2021/12/20 03:27:27;;;;;;;;;;;;;;;15.38;44.90;102905.16;5042215;28;19956;-85
2021/12/20 03:29:54;;;;;;;;;;;;;;;15.11;45.57;102909.69;5024443;28;20406;-84
2021/12/20 03:32:19;;;;;;;;;;;;;;;14.82;44.88;102902.47;5024257;28;19917;-85
2021/12/20 03:34:44;;;;;;;;;;;;;;;14.95;44.42;102908.44;5023844;28;19940;-85
2021/12/20 03:37:10;;;;;;;;;;;;;;;15.02;44.91;102905.44;5024648;28;19917;-85
2021/12/20 03:39:35;;;;;;;;;;;;;;;15.35;43.72;102902.53;5024481;28;20412;-84
2021/12/20 03:42:00;;;;;;;;;;;;;;;15.42;42.33;102898.63;5023957;28;19917;-85
2021/12/20 03:44:25;;;;;;;;;;;;;;;15.71;42.52;102899.41;5023437;28;19914;-85
2021/12/20 03:46:52;;;;;;;;;;;;;;;15.50;43.32;102902.91;5026054;28;19993;-84
2021/12/20 03:49:17;;;;;;;;;;;;;;;15.84;42.83;102899.00;5027253;28;19917;-84
2021/12/20 03:51:42;;;;;;;;;;;;;;;15.84;43.04;102899.00;5028337;28;19935;-85
2021/12/20 03:54:08;;;;;;;;;;;;;;;15.49;43.66;102898.41;5027858;28;19929;-85
2021/12/20 03:56:33;;;;;;;;;;;;;;;15.50;44.46;102887.44;5028650;28;20350;-85
2021/12/20 03:58:59;;;;;;;;;;;;;;;15.30;43.75;102895.44;5044406;28;19956;-84
2021/12/20 04:01:25;;;;;;;;;;;;;;;14.94;44.76;102895.75;5027479;28;19928;-84
2021/12/20 04:03:50;;;;;;;;;;;;;;;15.12;45.27;102894.25;5028237;28;19921;-84
2021/12/20 04:06:16;;;;;;;;;;;;;;;15.58;44.44;102895.38;5026678;28;19998;-84
2021/12/20 04:08:42;;;;;;;;;;;;;;;15.36;43.42;102898.84;5026793;28;19979;-85
2021/12/20 04:11:08;;;;;;;;;;;;;;;15.59;43.56;102899.84;5058554;28;19917;-85
2021/12/20 04:13:33;;;;;;;;;;;;;;;15.63;44.16;102903.38;5043906;28;20020;-84
2021/12/20 04:15:59;;;;;;;;;;;;;;;15.80;43.94;102906.41;5025374;28;20405;-85
2021/12/20 04:18:25;;;;;;;;;;;;;;;15.62;44.05;102898.88;5025061;28;19925;-85
2021/12/20 04:20:51;;;;;;;;;;;;;;;15.78;44.61;102900.13;5042880;28;19924;-85
2021/12/20 04:23:16;;;;;;;;;;;;;;;15.80;44.33;102895.50;5025749;28;19917;-85
2021/12/20 04:25:41;;;;;;;;;;;;;;;15.69;44.88;102892.25;5058163;28;19924;-85
2021/12/20 04:28:07;;;;;;;;;;;;;;;15.50;45.57;102897.47;5058199;28;19925;-85
2021/12/20 04:30:32;;;;;;;;;;;;;;;15.48;44.11;102894.78;5025083;28;19921;-85
2021/12/20 04:32:58;;;;;;;;;;;;;;;14.93;45.88;102902.13;5026147;28;19917;-85
2021/12/20 04:35:23;;;;;;;;;;;;;;;15.43;44.41;102891.34;5027716;28;19913;-86
2021/12/20 04:37:50;;;;;;;;;;;;;;;14.35;45.53;102894.84;5026426;28;19957;-85
2021/12/20 04:40:19;;;;;;;;;;;;;;;15.03;44.16;102900.88;5026663;28;19921;-84
2021/12/20 04:42:45;;;;;;;;;;;;;;;15.38;43.55;102896.06;5026865;28;19917;-85
2021/12/20 04:45:11;;;;;;;;;;;;;;;15.37;43.99;102894.28;5025934;28;19917;-85
2021/12/20 04:47:36;;;;;;;;;;;;;;;15.19;44.27;102888.53;5025272;28;19917;-84
2021/12/20 04:50:02;;;;;;;;;;;;;;;15.16;44.16;102885.91;5024904;28;19932;-85
2021/12/20 04:52:28;;;;;;;;;;;;;;;14.94;43.23;102895.75;5025674;28;20401;-85
2021/12/20 04:54:54;;;;;;;;;;;;;;;14.24;44.23;102900.63;5044112;28;19918;-85
2021/12/20 04:57:19;;;;;;;;;;;;;;;14.40;43.86;102906.47;5028442;28;19921;-85
2021/12/20 04:59:44;;;;;;;;;;;;;;;15.34;42.18;102895.28;5028063;28;19921;-85
2021/12/20 05:02:09;;;;;;;;;;;;;;;15.56;42.95;102894.50;5061670;28;19948;-84
2021/12/20 05:04:35;;;;;;;;;;;;;;;15.62;42.96;102897.00;5029053;28;19956;-85
2021/12/20 05:07:00;;;;;;;;;;;;;;;15.79;42.20;102898.28;5061480;28;19917;-84
2021/12/20 05:09:28;;;;;;;;;;;;;;;15.67;42.67;102897.75;5029084;28;19971;-85
2021/12/20 05:12:01;;;;;;;;;;;;;;;15.53;43.07;102895.50;5027876;28;20371;-85
2021/12/20 05:14:26;;;;;;;;;;;;;;;15.53;43.36;102897.34;5047015;28;19921;-85
2021/12/20 05:16:51;;;;;;;;;;;;;;;15.69;42.88;102900.44;5028378;28;19917;-84
2021/12/20 05:19:17;;;;;;;;;;;;;;;15.30;43.22;102906.34;5060911;28;19947;-84
2021/12/20 05:21:42;;;;;;;;;;;;;;;14.83;44.09;102899.72;5027918;28;19979;-85
2021/12/20 05:24:07;;;;;;;;;;;;;;;15.24;42.93;102891.97;5026531;28;20008;-84
2021/12/20 05:26:32;;;;;;;;;;;;;;;15.71;42.97;102904.88;5026862;28;19917;-84
2021/12/20 05:28:58;;;;;;;;;;;;;;;15.64;42.92;102913.31;5045288;28;19929;-85
2021/12/20 05:31:23;;;;;;;;;;;;;;;15.33;43.67;102914.44;5026728;28;19921;-84
2021/12/20 05:33:48;;;;;;;;;;;;;;;15.28;44.00;102910.94;5027123;28;19917;-85
2021/12/20 05:36:13;;;;;;;;;;;;;;;15.29;44.22;102912.75;5027487;28;19924;-84
2021/12/20 05:38:39;;;;;;;;;;;;;;;14.88;44.39;102911.34;5027624;28;20395;-85
2021/12/20 05:41:04;;;;;;;;;;;;;;;15.08;44.15;102915.25;5027480;28;20341;-84
2021/12/20 05:43:29;;;;;;;;;;;;;;;15.32;44.36;102907.19;5044407;28;19913;-84
2021/12/20 05:45:54;;;;;;;;;;;;;;;15.29;44.19;102910.88;5044655;28;19967;-84
2021/12/20 05:48:20;;;;;;;;;;;;;;;15.37;43.79;102916.09;5060604;28;19924;-84
2021/12/20 05:50:45;;;;;;;;;;;;;;;15.18;44.64;102911.25;5045293;28;19918;-85
2021/12/20 05:53:10;;;;;;;;;;;;;;;15.09;44.48;102913.44;5027503;28;19918;-85
2021/12/20 05:55:35;;;;;;;;;;;;;;;15.62;43.71;102916.13;5026785;28;19913;-85
2021/12/20 05:58:01;;;;;;;;;;;;;;;15.45;43.68;102914.00;5026575;28;20016;-85
2021/12/20 06:00:26;;;;;;;;;;;;;;;14.65;44.93;102911.22;5027788;28;19921;-85
2021/12/20 06:02:51;;;;;;;;;;;;;;;14.38;45.54;102912.94;5027705;28;19963;-84
2021/12/20 06:05:18;;;;;;;;;;;;;;;14.60;44.23;102910.41;5062185;28;19917;-85
2021/12/20 06:07:43;;;;;;;;;;;;;;;14.34;44.10;102918.47;5045327;28;19960;-85
2021/12/20 06:10:13;;;;;;;;;;;;;;;14.75;42.63;102914.50;5027913;28;19932;-84
2021/12/20 06:12:39;;;;;;;;;;;;;;;15.04;42.94;102921.75;5026056;28;19921;-84
2021/12/20 06:15:04;;;;;;;;;;;;;;;15.29;42.26;102926.38;5026972;28;19917;-84
2021/12/20 06:17:30;;;;;;;;;;;;;;;15.28;42.59;102919.13;5059787;28;19917;-84
2021/12/20 06:19:55;;;;;;;;;;;;;;;15.50;42.17;102927.47;5026873;28;20358;-85
2021/12/20 06:22:20;;;;;;;;;;;;;;;15.28;42.42;102921.84;5044851;28;19948;-85
2021/12/20 06:24:46;;;;;;;;;;;;;;;15.13;43.33;102929.63;5026624;28;19921;-84
2021/12/20 06:27:12;;;;;;;;;;;;;;;14.25;43.00;102926.00;5041451;28;19917;-85
2021/12/20 06:29:37;;;;;;;;;;;;;;;14.62;42.53;102925.81;5025657;28;20272;-84
2021/12/20 06:32:03;;;;;;;;;;;;;;;14.76;41.68;102919.91;5025564;28;20349;-84
2021/12/20 06:34:28;;;;;;;;;;;;;;;15.05;41.38;102920.78;5026571;28;20393;-84
2021/12/20 06:36:53;;;;;;;;;;;;;;;15.12;41.84;102908.75;5025348;28;19960;-84
2021/12/20 06:39:18;;;;;;;;;;;;;;;14.93;42.05;102907.56;5025092;28;19953;-85
2021/12/20 06:41:44;;;;;;;;;;;;;;;15.19;41.70;102915.78;5026080;28;19969;-85
2021/12/20 06:44:09;;;;;;;;;;;;;;;14.87;41.14;102923.19;5043700;28;20334;-85
2021/12/20 06:46:37;;;;;;;;;;;;;;;14.70;41.40;102915.56;5043620;28;20014;-85
2021/12/20 06:49:05;;;;;;;;;;;;;;;15.31;40.55;102928.13;5026076;28;20275;-85
2021/12/20 06:51:30;;;;;;;;;;;;;;;15.30;40.89;102926.31;5021066;28;20363;-83
2021/12/20 06:53:56;;;;;;;;;;;;;;;15.05;41.29;102920.78;5020354;28;19917;-86
2021/12/20 06:56:21;;;;;;;;;;;;;;;15.44;41.28;102928.56;5053158;28;19960;-84
2021/12/20 06:58:46;;;;;;;;;;;;;;;15.50;41.71;102922.88;5036865;28;20371;-84
2021/12/20 07:01:11;;;;;;;;;;;;;;;15.59;41.24;102929.88;5037384;28;20390;-86
2021/12/20 07:03:37;;;;;;;;;;;;;;;15.40;41.43;102927.78;5037833;28;19940;-85
2021/12/20 07:06:02;;;;;;;;;;;;;;;15.38;41.32;102928.78;5020628;28;19917;-85
2021/12/20 07:08:27;;;;;;;;;;;;;;;15.66;40.76;102928.72;5020144;28;20004;-86
2021/12/20 07:10:53;;;;;;;;;;;;;;;15.69;40.81;102934.06;5020870;28;19928;-85
2021/12/20 07:13:18;;;;;;;;;;;;;;;15.17;41.76;102925.84;5019553;28;20260;-85
2021/12/20 07:15:43;;;;;;;;;;;;;;;15.32;41.68;102918.09;5019437;28;19971;-84
2021/12/20 07:18:08;;;;;;;;;;;;;;;14.85;42.44;102935.09;5019356;28;19924;-85
2021/12/20 07:20:33;;;;;;;;;;;;;;;15.38;41.53;102929.69;5020653;28;19924;-85
2021/12/20 07:22:59;;;;;;;;;;;;;;;15.28;40.65;102927.31;5021441;28;20387;-85
2021/12/20 07:25:25;;;;;;;;;;;;;;;14.92;40.48;102919.44;5021842;28;19945;-84
2021/12/20 07:27:51;;;;;;;;;;;;;;;14.95;39.81;102928.41;5020311;28;20008;-85
2021/12/20 07:30:17;;;;;;;;;;;;;;;14.48;41.50;102934.38;5019387;28;19955;-84
2021/12/20 07:32:42;;;;;;;;;;;;;;;14.67;41.20;102939.28;5020405;28;20217;-84
2021/12/20 07:35:08;;;;;;;;;;;;;;;14.17;41.60;102938.00;5019115;28;20020;-84
2021/12/20 07:37:33;;;;;;;;;;;;;;;13.62;43.98;102929.59;5019081;28;19917;-84
2021/12/20 07:39:58;;;;;;;;;;;;;;;14.66;42.41;102937.50;5019825;28;19921;-84
2021/12/20 07:42:24;;;;;;;;;;;;;;;15.31;41.14;102927.19;5018789;28;20305;-85
2021/12/20 07:44:49;;;;;;;;;;;;;;;15.28;42.02;102932.75;5036587;28;19921;-85
2021/12/20 07:47:14;;;;;;;;;;;;;;;15.54;41.84;102946.41;5019062;28;19924;-84
2021/12/20 07:49:40;;;;;;;;;;;;;;;15.39;42.27;102936.91;5018516;28;19960;-85
2021/12/20 07:52:05;;;;;;;;;;;;;;;15.50;42.00;102935.66;5018874;28;19964;-84
2021/12/20 07:54:31;;;;;;;;;;;;;;;15.59;42.48;102933.50;5037016;28;19913;-84
2021/12/20 07:56:57;;;;;;;;;;;;;;;15.64;42.40;102940.63;5019616;28;19918;-84
2021/12/20 07:59:22;;;;;;;;;;;;;;;15.62;43.02;102942.50;5020355;28;19971;-85
2021/12/20 08:01:48;;;;;;;;;;;;;;;15.67;41.59;102943.22;5019535;28;20006;-84
2021/12/20 08:04:14;;;;;;;;;;;;;;;15.21;42.13;102945.72;5020698;28;20291;-85
2021/12/20 08:06:40;;;;;;;;;;;;;;;14.63;42.83;102951.22;5019249;28;19921;-85
2021/12/20 08:09:06;;;;;;;;;;;;;;;14.17;43.63;102948.91;5019390;28;19917;-87
2021/12/20 08:11:33;;;;;;;;;;;;;;;14.53;42.74;102951.47;5019623;28;19921;-86
2021/12/20 08:13:58;;;;;;;;;;;;;;;15.15;41.79;102955.00;5021060;28;19928;-84
2021/12/20 08:16:23;;;;;;;;;;;;;;;15.57;40.80;102951.75;5039548;28;20262;-86
2021/12/20 08:18:48;;;;;;;;;;;;;;;15.52;41.55;102950.13;5019513;28;19921;-85
2021/12/20 08:21:15;;;;;;;;;;;;;;;15.68;41.71;102947.75;5020486;28;19917;-85
2021/12/20 08:23:41;;;;;;;;;;;;;;;15.77;40.91;102956.53;5019587;28;20040;-85
2021/12/20 08:26:06;;;;;;;;;;;;;;;15.83;41.08;102957.25;5019587;28;19917;-86
2021/12/20 08:28:32;;;;;;;;;;;;;;;15.73;40.96;102964.84;5019532;28;19925;-84
2021/12/20 08:30:57;;;;;;;;;;;;;;;15.48;41.54;102971.16;5040846;28;20004;-86
2021/12/20 08:33:22;;;;;;;;;;;;;;;15.42;41.40;102961.34;5012916;28;19939;-84
2021/12/20 08:35:49;;;;;;;;;;;;;;;15.38;42.72;102970.59;5008354;28;19984;-85
2021/12/20 08:38:18;;;;;;;;;;;;;;;15.70;42.12;102973.13;5003954;28;19918;-84
2021/12/20 08:40:44;;;;;;;;;;;;;;;15.57;43.49;102959.94;5005098;28;19930;-86
2021/12/20 08:43:10;;;;;;;;;;;;;;;15.50;42.89;102952.00;5021945;28;19925;-86
2021/12/20 08:45:35;;;;;;;;;;;;;;;15.49;43.21;102962.03;5006049;28;19973;-85
2021/12/20 08:48:00;;;;;;;;;;;;;;;15.22;43.47;102961.16;5024803;28;20417;-85
2021/12/20 08:50:26;;;;;;;;;;;;;;;15.29;42.07;102964.56;5023049;28;19921;-86
2021/12/20 08:52:51;;;;;;;;;;;;;;;15.26;42.36;102968.25;5023503;28;19918;-85
2021/12/20 08:55:17;;;;;;;;;;;;;;;14.93;43.46;102962.09;5023454;28;20271;-85
2021/12/20 08:57:43;;;;;;;;;;;;;;;15.11;43.73;102969.66;5022596;28;19924;-85
2021/12/20 09:00:11;;;;;;;;;;;;;;;15.35;42.22;102975.25;5023263;28;19924;-85
2021/12/20 09:02:36;;;;;;;;;;;;;;;15.25;42.21;102977.41;5006397;28;20376;-85
2021/12/20 09:05:02;;;;;;;;;;;;;;;14.99;42.84;102975.50;5005383;28;19917;-84
2021/12/20 09:07:27;;;;;;;;;;;;;;;15.18;42.53;102973.09;5005441;28;19921;-83
2021/12/20 09:09:53;;;;;;;;;;;;;;;14.99;42.73;102972.78;5006403;28;19973;-85
2021/12/20 09:12:18;;;;;;;;;;;;;;;14.20;44.08;102977.88;5005242;28;20243;-86
2021/12/20 09:14:44;;;;;;;;;;;;;;;13.73;44.22;102983.69;5004746;28;19932;-85
2021/12/20 09:17:09;;;;;;;;;;;;;;;14.62;43.57;102979.41;5006263;28;19967;-87
2021/12/20 09:19:36;;;;;;;;;;;;;;;14.79;42.83;102990.66;5024710;28;19906;-86
2021/12/20 09:22:01;;;;;;;;;;;;;;;14.94;43.55;102983.84;5023772;28;19967;-86
2021/12/20 09:24:27;;;;;;;;;;;;;;;15.10;43.77;102988.78;5004798;28;20272;-85
2021/12/20 09:26:52;;;;;;;;;;;;;;;15.00;44.33;103000.00;5005040;28;20446;-84
2021/12/20 09:29:17;;;;;;;;;;;;;;;14.95;43.90;102988.34;5035228;28;20378;-87
2021/12/20 09:31:44;;;;;;;;;;;;;;;15.14;43.15;102991.41;5021877;28;19925;-87
2021/12/20 09:34:10;;;;;;;;;;;;;;;14.88;44.35;102979.47;5023146;28;19929;-89
2021/12/20 09:36:35;;;;;;;;;;;;;;;15.13;44.18;102983.28;5022898;28;19917;-85
2021/12/20 09:39:01;;;;;;;;;;;;;;;15.03;43.99;102982.66;5023039;28;19923;-87
2021/12/20 09:44:05;;;;;;;;;;;;;;;15.60;43.39;102981.66;5039650;28;19925;-87
2021/12/20 09:46:31;;;;;;;;;;;;;;;15.22;43.50;102988.41;5021823;28;19917;-85
2021/12/20 09:48:57;;;;;;;;;;;;;;;13.99;45.40;102992.97;5038657;28;19924;-84
2021/12/20 09:51:23;;;;;;;;;;;;;;;14.74;44.68;102998.09;5038770;28;19924;-82
2021/12/20 09:53:48;;;;;;;;;;;;;;;14.54;44.87;102996.84;5021866;28;19917;-86
2021/12/20 09:56:14;;;;;;;;;;;;;;;14.95;44.68;102999.25;5038190;28;19924;-86
2021/12/20 09:58:40;;;;;;;;;;;;;;;15.46;43.16;103000.34;5038103;28;19929;-85
2021/12/20 10:01:06;;;;;;;;;;;;;;;14.22;45.89;102992.34;5039970;28;20322;-84
2021/12/20 10:03:32;;;;;;;;;;;;;;;14.20;45.66;102996.03;5022219;28;20009;-86
2021/12/20 10:05:57;;;;;;;;;;;;;;;15.41;43.52;102992.31;5021363;28;19957;-84
2021/12/20 10:08:34;;;;;;;;;;;;;;;14.79;44.00;102995.22;5020925;28;20015;-83
2021/12/20 10:11:16;;;;;;;;;;;;;;;13.96;46.10;102993.06;5020877;28;19929;-81
2021/12/20 10:13:41;;;;;;;;;;;;;;;13.92;45.69;103002.22;5020433;28;20329;-85
2021/12/20 10:16:13;;;;;;;;;;;;;;;14.03;46.34;102997.41;5020214;28;20012;-82
2021/12/20 10:18:42;;;;;;;;;;;;;;;14.20;46.47;102996.03;5020094;28;19924;-83
2021/12/20 10:21:07;;;;;;;;;;;;;;;14.31;45.64;103002.06;5020801;28;20375;-85
2021/12/20 10:23:34;;;;;;;;;;;;;;;14.42;45.37;103002.66;5020072;28;19917;-83
2021/12/20 10:26:01;;;;;;;;;;;;;;;15.09;43.84;102997.94;5021154;28;19928;-83
2021/12/20 10:28:31;;;;;;;;;;;;;;;14.61;44.22;102997.56;5021219;28;20075;-84
2021/12/20 10:30:59;;;;;;;;;;;;;;;14.56;44.79;102993.19;5020965;28;19917;-83
2021/12/20 10:33:25;;;;;;;;;;;;;;;15.32;42.86;102986.25;5020995;28;19921;-83
2021/12/20 10:35:52;;;;;;;;;;;;;;;15.09;43.21;102992.47;5021346;28;20334;-83
2021/12/20 10:38:44;;;;;;;;;;;;;;;14.24;45.06;102992.31;5036365;28;19971;-84
2021/12/20 10:41:12;;;;;;;;;;;;;;;14.72;44.88;102989.09;5017760;28;19927;-83
2021/12/20 10:43:48;;;;;;;;;;;;;;;14.68;44.56;102992.84;5038040;28;19924;-84
2021/12/20 10:46:15;;;;;;;;;;;;;;;14.60;44.64;102990.31;5038460;28;19928;-84
2021/12/20 10:48:41;;;;;;;;;;;;;;;14.82;44.46;102990.56;5019599;28;19917;-83
2021/12/20 10:51:15;;;;;;;;;;;;;;;15.41;42.80;102989.59;5019643;28;19971;-84
2021/12/20 10:53:44;;;;;;;;;;;;;;;14.88;43.52;102995.81;5018254;28;19944;-83
2021/12/20 10:56:11;;;;;;;;;;;;;;;14.74;44.50;102999.94;5020715;28;19972;-84
2021/12/20 10:58:38;;;;;;;;;;;;;;;13.99;45.17;103002.06;5018589;28;19929;-84
2021/12/20 11:04:05;;;;;;;;;;;;;;;14.80;43.89;102989.72;5037627;28;19931;-84
2021/12/20 11:06:56;;;;;;;;;;;;;;;15.26;43.29;102989.19;5036716;28;19944;-83
2021/12/20 11:09:22;;;;;;;;;;;;;;;15.73;42.38;102994.84;5019870;28;19944;-83
2021/12/20 11:11:49;;;;;;;;;;;;;;;15.74;42.11;102991.19;5019249;28;20351;-83
2021/12/20 11:14:15;;;;;;;;;;;;;;;15.39;43.16;102991.47;5020156;28;19975;-83
2021/12/20 11:16:40;;;;;;;;;;;;;;;15.58;42.63;102989.00;5020191;28;19976;-85
2021/12/20 11:19:19;;;;;;;;;;;;;;;15.23;43.04;102991.09;5038089;28;19924;-84
2021/12/20 11:21:47;;;;;;;;;;;;;;;14.81;43.05;102996.06;5021152;28;20023;-84
2021/12/20 11:24:13;;;;;;;;;;;;;;;14.16;45.74;102989.78;5037317;28;19941;-84
2021/12/20 11:26:38;;;;;;;;;;;;;;;15.12;43.25;102982.34;5017914;28;19917;-84
2021/12/20 11:29:04;;;;;;;;;;;;;;;14.56;45.20;102988.63;5036391;28;19931;-84
2021/12/20 11:31:29;;;;;;;;;;;;;;;13.98;45.40;102983.03;5036993;28;20020;-83
2021/12/20 11:33:55;;;;;;;;;;;;;;;13.66;44.95;102982.06;5038735;28;19917;-84
2021/12/20 11:36:20;;;;;;;;;;;;;;;14.01;43.04;102985.69;5020449;28;20285;-84
2021/12/20 11:38:45;;;;;;;;;;;;;;;14.51;41.13;102982.44;5019314;28;19905;-84
2021/12/20 11:41:11;;;;;;;;;;;;;;;14.35;40.39;102985.56;5019703;28;20417;-84
2021/12/20 11:43:37;;;;;;;;;;;;;;;13.68;41.04;102977.50;5036113;28;20055;-85
2021/12/20 11:46:04;;;;;;;;;;;;;;;14.65;39.42;102987.47;5018770;28;20007;-85
2021/12/20 11:48:30;;;;;;;;;;;;;;;15.36;38.78;102985.22;5036841;28;19928;-85
2021/12/20 11:50:55;;;;;;;;;;;;;;;15.56;38.22;102974.50;5003008;28;20011;-85
2021/12/20 11:53:21;;;;;;;;;;;;;;;16.01;37.78;102983.00;5015581;28;20012;-83
2021/12/20 11:55:46;;;;;;;;;;;;;;;15.83;37.62;102974.53;5037337;28;19944;-84
2021/12/20 11:58:16;;;;;;;;;;;;;;;15.21;38.51;102971.16;5019505;28;20010;-84
2021/12/20 12:00:47;;;;;;;;;;;;;;;15.75;38.15;102979.34;5019002;28;19917;-84
2021/12/20 12:03:15;;;;;;;;;;;;;;;15.46;38.16;102973.06;5035386;28;19952;-83
2021/12/20 12:05:46;;;;;;;;;;;;;;;16.17;37.19;102969.66;5017217;28;19921;-83
2021/12/20 12:08:20;;;;;;;;;;;;;;;16.02;37.40;102973.84;5018195;28;19917;-84
2021/12/20 12:10:46;;;;;;;;;;;;;;;16.22;37.05;102984.94;5019085;28;19939;-86
2021/12/20 12:13:15;;;;;;;;;;;;;;;16.64;36.54;102973.31;5020069;28;20312;-84
2021/12/20 12:15:53;;;;;;;;;;;;;;;16.73;36.50;102976.66;5020338;28;19963;-84
2021/12/20 12:18:19;;;;;;;;;;;;;;;16.72;36.42;102973.00;5019699;28;19917;-83
2021/12/20 12:20:48;;;;;;;;;;;;;;;16.99;35.66;102973.78;5020244;28;20012;-83
2021/12/20 12:23:20;;;;;;;;;;;;;;;16.21;37.25;102976.81;5020575;28;19988;-83
2021/12/20 12:25:53;;;;;;;;;;;;;;;16.72;35.39;102973.00;5019592;28;19917;-83
2021/12/20 12:28:39;;;;;;;;;;;;;;;17.09;35.47;102967.94;5039124;28;19928;-83
2021/12/20 12:31:06;;;;;;;;;;;;;;;16.89;36.34;102966.91;5023879;28;20015;-85
2021/12/20 12:33:34;;;;;;;;;;;;;;;14.60;40.03;102971.25;5036084;28;19918;-84
2021/12/20 12:36:01;;;;;;;;;;;;;;;14.67;42.64;102974.69;5019051;28;19972;-84
2021/12/20 12:38:27;;;;;;;;;;;;;;;13.56;45.43;102962.38;5035496;28;19917;-84
2021/12/20 12:41:13;;;;;;;;;;;;;;;13.27;46.57;102972.16;5016671;28;20008;-83
2021/12/20 12:43:44;;;;;;;;;;;;;;;13.12;47.14;102972.53;5017250;28;20000;-84
2021/12/20 12:46:09;;;;;;;;;;;;;;;12.77;46.53;102967.00;5018400;28;19925;-83
2021/12/20 12:48:36;;;;;;;;;;;;;;;13.27;46.74;102963.06;5037389;28;19917;-83
2021/12/20 12:51:27;;;;;;;;;;;;;;;12.69;46.79;102968.09;5020081;28;19925;-84
2021/12/20 12:53:53;;;;;;;;;;;;;;;13.99;44.67;102965.75;5019266;28;19913;-83